Time;durP1;ratioP1;P1;durP2;ratioP2;P2;SDS_P1;SDS_P2;PMS_P1;PMS_P2;Temp;Humidity;BMP_temperature;BMP_pressure;BME280_temperature;BME280_humidity;BME280_pressure;Samples;Min_cycle;Max_cycle;Signal;HPM_P1;HPM_P2
2023/11/19 00:00:11;;;;;;;1.90;1.50;;;;;;;18.75;52.51;98484.75;105437;1259;72377;-40
2023/11/19 00:02:39;;;;;;;1.90;1.60;;;;;;;18.75;52.58;98482.52;105476;1259;61225;-40
2023/11/19 00:05:08;;;;;;;2.60;1.50;;;;;;;18.75;52.62;98476.60;105444;1260;61166;-40
2023/11/19 00:07:36;;;;;;;2.10;1.90;;;;;;;18.75;52.65;98476.60;105722;1259;73529;-40
2023/11/19 00:10:06;;;;;;;1.70;1.60;;;;;;;18.75;52.61;98473.73;105536;1260;66209;-40
2023/11/19 00:12:33;;;;;;;2.10;1.60;;;;;;;18.75;52.60;98471.48;105626;1257;72600;-40
2023/11/19 00:15:00;;;;;;;1.70;1.60;;;;;;;18.74;52.59;98469.46;105500;1259;61533;-40
2023/11/19 00:17:27;;;;;;;1.70;1.60;;;;;;;18.73;52.56;98469.11;105567;1259;61249;-40
2023/11/19 00:19:53;;;;;;;1.80;1.70;;;;;;;18.74;52.64;98468.76;105658;1258;74436;-40
2023/11/19 00:22:21;;;;;;;1.90;1.70;;;;;;;18.74;52.55;98466.04;105529;1255;65894;-40
2023/11/19 00:24:48;;;;;;;1.70;1.60;;;;;;;18.73;52.52;98462.29;105365;1257;72286;-40
2023/11/19 00:27:15;;;;;;;1.50;1.40;;;;;;;18.74;52.60;98463.09;105334;1259;61360;-40
2023/11/19 00:29:44;;;;;;;1.70;1.50;;;;;;;18.74;52.58;98466.88;105614;1260;61701;-39
2023/11/19 00:32:11;;;;;;;1.80;1.60;;;;;;;18.74;52.63;98468.19;105366;1259;74387;-40
2023/11/19 00:34:39;;;;;;;1.60;1.50;;;;;;;18.73;52.61;98467.88;105318;1260;66221;-40
2023/11/19 00:37:06;;;;;;;1.70;1.60;;;;;;;18.73;52.62;98468.86;105447;1260;72686;-40
2023/11/19 00:39:33;;;;;;;2.10;1.60;;;;;;;18.73;52.53;98466.46;105521;1263;61235;-40
2023/11/19 00:42:00;;;;;;;3.70;1.50;;;;;;;18.73;52.57;98468.97;105444;1259;61326;-40
2023/11/19 00:44:26;;;;;;;1.70;1.60;;;;;;;18.73;52.59;98468.71;105318;1260;74667;-40
2023/11/19 00:46:53;;;;;;;1.70;1.60;;;;;;;18.73;52.52;98470.65;105478;1259;66162;-40
2023/11/19 00:49:20;;;;;;;1.90;1.80;;;;;;;18.73;52.57;98456.92;105647;1260;72580;-40
2023/11/19 00:51:46;;;;;;;1.80;1.70;;;;;;;18.73;52.53;98448.46;105476;1256;61257;-41
2023/11/19 00:54:13;;;;;;;1.70;1.60;;;;;;;18.72;52.45;98446.98;105543;1259;61317;-41
2023/11/19 00:56:40;;;;;;;1.90;1.70;;;;;;;18.73;52.54;98449.62;105188;1260;74560;-41
2023/11/19 00:59:06;;;;;;;1.80;1.70;;;;;;;18.72;52.50;98452.78;105532;1259;66271;-40
2023/11/19 01:01:33;;;;;;;1.80;1.60;;;;;;;18.72;52.55;98451.39;105559;1259;72410;-40
2023/11/19 01:04:00;;;;;;;2.00;1.60;;;;;;;18.71;52.47;98449.35;105582;1260;61266;-40
2023/11/19 01:06:28;;;;;;;3.50;1.90;;;;;;;18.72;52.48;98443.41;105584;1258;61275;-40
2023/11/19 01:08:56;;;;;;;2.10;1.70;;;;;;;18.72;52.52;98442.06;105590;1260;74851;-40
2023/11/19 01:11:23;;;;;;;1.70;1.60;;;;;;;18.71;52.52;98443.38;105522;1260;65807;-41
2023/11/19 01:13:50;;;;;;;2.00;1.70;;;;;;;18.71;52.44;98445.23;105257;1257;72388;-42
2023/11/19 01:16:17;;;;;;;2.30;1.60;;;;;;;18.71;52.52;98443.45;105396;1260;61698;-42
2023/11/19 01:18:44;;;;;;;1.70;1.50;;;;;;;18.71;52.59;98436.28;105585;1260;61329;-40
2023/11/19 01:21:12;;;;;;;1.60;1.50;;;;;;;18.70;52.54;98434.73;105589;1257;74476;-40
2023/11/19 01:23:39;;;;;;;1.60;1.40;;;;;;;18.71;52.55;98437.84;105656;1260;66073;-40
2023/11/19 01:26:05;;;;;;;2.00;1.70;;;;;;;18.71;52.43;98440.34;105636;1260;72382;-39
2023/11/19 01:28:32;;;;;;;2.40;1.70;;;;;;;18.70;52.43;98439.06;105603;1260;61241;-40
2023/11/19 01:30:59;;;;;;;1.80;1.70;;;;;;;18.70;52.50;98433.41;105623;1260;61275;-40
2023/11/19 01:33:26;;;;;;;1.90;1.70;;;;;;;18.70;52.55;98426.80;105598;1260;74636;-40
2023/11/19 01:35:52;;;;;;;1.90;1.70;;;;;;;18.70;52.50;98423.71;105672;1261;65841;-40
2023/11/19 01:38:19;;;;;;;1.60;1.40;;;;;;;18.70;52.59;98425.02;105470;1260;72471;-41
2023/11/19 01:40:46;;;;;;;1.50;1.40;;;;;;;18.70;52.48;98423.94;105426;1260;61227;-41
2023/11/19 01:43:14;;;;;;;2.10;1.40;;;;;;;18.69;52.46;98427.34;105453;1259;61267;-40
2023/11/19 01:45:41;;;;;;;1.70;1.50;;;;;;;18.70;52.55;98431.84;105613;1260;74382;-40
2023/11/19 01:48:11;;;;;;;2.50;1.80;;;;;;;18.70;52.45;98434.09;105640;1260;66296;-40
2023/11/19 01:50:38;;;;;;;1.50;1.40;;;;;;;18.70;52.53;98438.89;105595;1258;72601;-40
2023/11/19 01:53:04;;;;;;;3.10;1.70;;;;;;;18.70;52.56;98444.09;105602;1263;61237;-40
2023/11/19 01:55:31;;;;;;;2.60;1.90;;;;;;;18.69;52.53;98444.16;105550;1260;61359;-40
2023/11/19 01:57:59;;;;;;;2.00;1.60;;;;;;;18.69;52.49;98445.08;105649;1255;74537;-40
2023/11/19 02:00:26;;;;;;;1.80;1.70;;;;;;;18.69;52.47;98449.02;105483;1260;67879;-40
2023/11/19 02:02:54;;;;;;;2.20;1.50;;;;;;;18.69;52.56;98446.30;105348;1259;72661;-40
2023/11/19 02:05:21;;;;;;;2.00;1.60;;;;;;;18.69;52.55;98446.52;105409;1271;61215;-40
2023/11/19 02:07:50;;;;;;;1.70;1.50;;;;;;;18.69;52.55;98443.43;105632;1260;61335;-41
2023/11/19 02:10:19;;;;;;;1.40;1.30;;;;;;;18.68;52.58;98439.85;105614;1260;74597;-40
2023/11/19 02:12:45;;;;;;;4.80;1.80;;;;;;;18.68;52.45;98437.52;105670;1254;65464;-40
2023/11/19 02:15:12;;;;;;;1.60;1.50;;;;;;;18.68;52.46;98437.36;105606;1260;72404;-40
2023/11/19 02:17:39;;;;;;;1.80;1.60;;;;;;;18.69;52.54;98435.45;105651;1261;61231;-40
2023/11/19 02:20:09;;;;;;;1.60;1.50;;;;;;;18.68;52.53;98430.98;105609;1260;61308;-40
2023/11/19 02:22:35;;;;;;;1.70;1.50;;;;;;;18.67;52.52;98426.95;105740;1258;74623;-40
2023/11/19 02:25:06;;;;;;;1.50;1.40;;;;;;;18.67;52.47;98429.17;105507;1260;66225;-40
2023/11/19 02:27:56;;;;;;;2.00;1.80;;;;;;;18.67;52.53;98430.20;105543;1259;72950;-40
2023/11/19 02:30:26;;;;;;;1.70;1.60;;;;;;;18.67;52.52;98428.86;105325;1260;61465;-40
2023/11/19 02:32:54;;;;;;;2.20;1.60;;;;;;;18.67;52.54;98432.91;105453;1259;61236;-40
2023/11/19 02:35:21;;;;;;;1.60;1.50;;;;;;;18.67;52.51;98436.30;105547;1260;74562;-40
2023/11/19 02:37:48;;;;;;;1.60;1.50;;;;;;;18.66;52.53;98431.96;105484;1260;65940;-41
2023/11/19 02:40:14;;;;;;;1.50;1.40;;;;;;;18.67;52.50;98436.38;105308;1259;72274;-40
2023/11/19 02:42:41;;;;;;;1.70;1.60;;;;;;;18.67;52.48;98436.84;105324;1260;61233;-41
2023/11/19 02:45:13;;;;;;;2.00;1.80;;;;;;;18.66;52.39;98432.73;105351;1257;61298;-40
2023/11/19 02:47:42;;;;;;;2.80;1.70;;;;;;;18.67;52.45;98430.16;105640;1260;73071;-40
2023/11/19 02:50:14;;;;;;;1.70;1.50;;;;;;;18.66;52.51;98422.41;105665;1259;66439;-40
2023/11/19 02:52:45;;;;;;;1.90;1.80;;;;;;;18.66;52.37;98420.70;105646;1260;72368;-40
2023/11/19 02:55:15;;;;;;;2.10;1.90;;;;;;;18.66;52.44;98421.84;105543;1257;61275;-41
2023/11/19 02:57:48;;;;;;;1.80;1.60;;;;;;;18.65;52.44;98419.11;105402;1258;61342;-42
2023/11/19 03:00:23;;;;;;;1.70;1.60;;;;;;;18.66;52.41;98412.77;105391;1259;74373;-41
2023/11/19 03:02:59;;;;;;;1.60;1.50;;;;;;;18.65;52.41;98411.30;105554;1261;66113;-40
2023/11/19 03:05:27;;;;;;;2.10;1.80;;;;;;;18.65;52.50;98404.25;105589;1255;72723;-40
2023/11/19 03:07:53;;;;;;;2.70;1.80;;;;;;;18.65;52.50;98403.85;105730;1269;61321;-41
2023/11/19 03:10:20;;;;;;;2.00;1.70;;;;;;;18.65;52.43;98398.02;105697;1257;61208;-40
2023/11/19 03:12:46;;;;;;;3.00;1.80;;;;;;;18.65;52.40;98392.85;105669;1266;74799;-40
2023/11/19 03:15:14;;;;;;;1.60;1.50;;;;;;;18.65;52.40;98395.84;105663;1269;67001;-40
2023/11/19 03:17:44;;;;;;;2.40;1.70;;;;;;;18.65;52.41;98398.02;105665;1254;72984;-40
2023/11/19 03:20:17;;;;;;;2.20;1.60;;;;;;;18.65;52.52;98402.13;105613;1267;61238;-40
2023/11/19 03:22:44;;;;;;;1.60;1.40;;;;;;;18.65;52.36;98392.27;105641;1259;61258;-40
2023/11/19 03:25:11;;;;;;;1.60;1.50;;;;;;;18.65;52.45;98382.60;105619;1255;75112;-40
2023/11/19 03:27:38;;;;;;;3.40;1.80;;;;;;;18.64;52.41;98373.95;105567;1269;65463;-40
2023/11/19 03:30:06;;;;;;;1.60;1.50;;;;;;;18.64;52.44;98365.59;105542;1257;72334;-41
2023/11/19 03:32:35;;;;;;;4.20;1.60;;;;;;;18.64;52.42;98353.88;105765;1257;61228;-40
2023/11/19 03:35:04;;;;;;;2.10;1.70;;;;;;;18.64;52.43;98344.05;105647;1258;61352;-40
2023/11/19 03:37:32;;;;;;;1.50;1.40;;;;;;;18.64;52.47;98332.27;105900;1259;73660;-41
2023/11/19 03:39:59;;;;;;;1.80;1.40;;;;;;;18.64;52.38;98321.38;105681;1260;65585;-40
2023/11/19 03:42:32;;;;;;;2.60;2.00;;;;;;;18.64;52.45;98308.59;105816;1259;72766;-40
2023/11/19 03:44:59;;;;;;;1.50;1.40;;;;;;;18.63;52.46;98304.95;105605;1260;61285;-41
2023/11/19 03:47:26;;;;;;;2.60;1.60;;;;;;;18.63;52.42;98295.02;105921;1258;61329;-41
2023/11/19 03:49:53;;;;;;;1.50;1.40;;;;;;;18.63;52.41;98288.12;105669;1266;74419;-40
2023/11/19 03:52:20;;;;;;;1.70;1.60;;;;;;;18.63;52.44;98283.08;106085;1257;65307;-40
2023/11/19 03:54:47;;;;;;;1.90;1.50;;;;;;;18.63;52.35;98282.23;105585;1257;72601;-40
2023/11/19 03:57:15;;;;;;;1.50;1.40;;;;;;;18.63;52.40;98274.40;106054;1257;61340;-41
2023/11/19 03:59:42;;;;;;;1.70;1.60;;;;;;;18.63;52.41;98271.31;105440;1257;62243;-40
2023/11/19 04:02:08;;;;;;;1.70;1.60;;;;;;;18.63;52.43;98264.64;105604;1260;74657;-40
2023/11/19 04:04:35;;;;;;;2.00;1.70;;;;;;;18.63;52.34;98260.59;105437;1261;66137;-40
2023/11/19 04:07:04;;;;;;;3.90;1.70;;;;;;;18.63;52.34;98257.50;105549;1257;72628;-40
2023/11/19 04:09:32;;;;;;;1.60;1.50;;;;;;;18.63;52.30;98256.64;105668;1257;61230;-40
2023/11/19 04:12:00;;;;;;;1.80;1.70;;;;;;;18.63;52.34;98260.20;106228;1257;61228;-40
2023/11/19 04:14:27;;;;;;;2.20;1.80;;;;;;;18.62;52.40;98264.30;105712;1256;74457;-40
2023/11/19 04:16:53;;;;;;;1.90;1.50;;;;;;;18.63;52.45;98264.86;105568;1261;65920;-41
2023/11/19 04:19:20;;;;;;;2.90;1.80;;;;;;;18.62;52.30;98273.38;105621;1257;72601;-40
2023/11/19 04:21:47;;;;;;;2.30;1.80;;;;;;;18.63;52.40;98272.92;105561;1259;61238;-40
2023/11/19 04:24:14;;;;;;;2.20;1.80;;;;;;;18.62;52.40;98270.89;105409;1257;61294;-40
2023/11/19 04:26:45;;;;;;;1.80;1.50;;;;;;;18.62;52.39;98278.86;105551;1260;74341;-40
2023/11/19 04:29:12;;;;;;;1.80;1.60;;;;;;;18.62;52.38;98282.51;105669;1258;66182;-40
2023/11/19 04:31:39;;;;;;;2.30;1.60;;;;;;;18.62;52.44;98284.29;105607;1257;72619;-41
2023/11/19 04:34:06;;;;;;;1.60;1.50;;;;;;;18.62;52.40;98287.16;105610;1259;61355;-41
2023/11/19 04:36:33;;;;;;;2.30;1.70;;;;;;;18.62;52.40;98284.83;105559;1257;61318;-41
2023/11/19 04:39:00;;;;;;;1.50;1.40;;;;;;;18.61;52.35;98283.94;105678;1260;74547;-41
2023/11/19 04:41:30;;;;;;;1.70;1.60;;;;;;;18.61;52.39;98283.55;105446;1260;66111;-42
2023/11/19 04:43:56;;;;;;;2.20;2.00;;;;;;;18.62;52.34;98289.84;105508;1257;72615;-41
2023/11/19 04:46:23;;;;;;;2.10;1.60;;;;;;;18.61;52.44;98294.56;105503;1259;61262;-40
2023/11/19 04:48:50;;;;;;;2.10;1.50;;;;;;;18.61;52.39;98300.67;105626;1258;61863;-40
2023/11/19 04:51:17;;;;;;;2.00;1.80;;;;;;;18.61;52.45;98300.06;105635;1257;74268;-40
2023/11/19 04:53:44;;;;;;;1.90;1.60;;;;;;;18.60;52.37;98303.08;105617;1260;65893;-40
2023/11/19 04:56:11;;;;;;;2.00;1.60;;;;;;;18.61;52.32;98304.63;105547;1258;72663;-40
2023/11/19 04:58:37;;;;;;;1.60;1.50;;;;;;;18.60;52.39;98313.52;105619;1259;61269;-40
2023/11/19 05:01:04;;;;;;;1.90;1.50;;;;;;;18.60;52.33;98316.16;105629;1257;61278;-40
2023/11/19 05:03:32;;;;;;;2.90;1.80;;;;;;;18.60;52.43;98314.83;105645;1259;74570;-40
2023/11/19 05:05:59;;;;;;;1.60;1.50;;;;;;;18.60;52.42;98318.63;105591;1260;66216;-40
2023/11/19 05:08:25;;;;;;;1.80;1.70;;;;;;;18.60;52.42;98315.59;105587;1257;72489;-40
2023/11/19 05:10:52;;;;;;;1.90;1.70;;;;;;;18.59;52.29;98306.28;105632;1260;61345;-41
2023/11/19 05:13:19;;;;;;;1.90;1.60;;;;;;;18.59;52.32;98304.42;105615;1257;61366;-40
2023/11/19 05:15:45;;;;;;;1.90;1.70;;;;;;;18.59;52.37;98299.23;105322;1257;74554;-40
2023/11/19 05:18:12;;;;;;;2.70;1.60;;;;;;;18.59;52.42;98300.85;105692;1259;65631;-40
2023/11/19 05:20:39;;;;;;;2.20;1.50;;;;;;;18.59;52.49;98298.67;105647;1257;72366;-40
2023/11/19 05:23:05;;;;;;;1.70;1.60;;;;;;;18.59;52.38;98289.76;105611;1270;61235;-40
2023/11/19 05:25:32;;;;;;;2.30;1.60;;;;;;;18.58;52.32;98279.67;105372;1257;61224;-40
2023/11/19 05:27:59;;;;;;;2.40;1.90;;;;;;;18.59;52.42;98280.52;105609;1258;74560;-40
2023/11/19 05:30:26;;;;;;;2.00;1.80;;;;;;;18.59;52.37;98279.75;105647;1259;66241;-40
2023/11/19 05:32:53;;;;;;;2.30;1.60;;;;;;;18.59;52.31;98277.20;105619;1259;72526;-40
2023/11/19 05:35:19;;;;;;;1.60;1.40;;;;;;;18.58;52.42;98268.67;105428;1259;61269;-41
2023/11/19 05:37:46;;;;;;;1.70;1.60;;;;;;;18.58;52.33;98261.61;105402;1257;61276;-42
2023/11/19 05:40:15;;;;;;;1.80;1.60;;;;;;;18.58;52.39;98259.27;105558;1260;74523;-42
2023/11/19 05:42:43;;;;;;;2.60;1.70;;;;;;;18.58;52.44;98259.73;105589;1260;66016;-42
2023/11/19 05:45:11;;;;;;;1.70;1.60;;;;;;;18.58;52.35;98255.78;105634;1257;72851;-40
2023/11/19 05:47:38;;;;;;;1.70;1.60;;;;;;;18.58;52.34;98250.04;105686;1259;61346;-40
2023/11/19 05:50:06;;;;;;;1.90;1.80;;;;;;;18.58;52.32;98241.06;105587;1257;61238;-40
2023/11/19 05:52:33;;;;;;;2.70;1.70;;;;;;;18.57;52.36;98231.27;105601;1257;73998;-40
2023/11/19 05:55:04;;;;;;;1.70;1.60;;;;;;;18.57;52.35;98236.23;105467;1259;65667;-39
2023/11/19 05:57:31;;;;;;;2.10;1.50;;;;;;;18.57;52.36;98238.77;105599;1257;72813;-40
2023/11/19 05:59:59;;;;;;;1.80;1.50;;;;;;;18.57;52.30;98240.55;105482;1260;61244;-39
2023/11/19 06:02:27;;;;;;;1.50;1.40;;;;;;;18.57;52.36;98238.55;105821;1257;61326;-39
2023/11/19 06:04:53;;;;;;;2.20;1.50;;;;;;;18.57;52.43;98234.20;105437;1259;74424;-39
2023/11/19 06:07:20;;;;;;;3.60;1.60;;;;;;;18.57;52.35;98233.89;105386;1260;65534;-39
2023/11/19 06:09:47;;;;;;;1.70;1.60;;;;;;;18.56;52.38;98235.64;105247;1254;72578;-39
2023/11/19 06:12:14;;;;;;;1.60;1.50;;;;;;;18.57;52.37;98237.36;105448;1259;61164;-39
2023/11/19 06:14:40;;;;;;;2.10;1.70;;;;;;;18.57;52.38;98245.17;105456;1257;61253;-40
2023/11/19 06:17:08;;;;;;;1.90;1.70;;;;;;;18.57;52.39;98245.83;105469;1259;74400;-41
2023/11/19 06:19:35;;;;;;;1.70;1.40;;;;;;;18.57;52.38;98250.70;105490;1259;65842;-40
2023/11/19 06:22:02;;;;;;;1.90;1.70;;;;;;;18.57;52.40;98255.59;105394;1257;72601;-40
2023/11/19 06:24:29;;;;;;;1.70;1.50;;;;;;;18.57;52.29;98257.27;105408;1258;61160;-40
2023/11/19 06:26:56;;;;;;;2.00;1.60;;;;;;;18.56;52.25;98251.77;105397;1255;61343;-40
2023/11/19 06:29:22;;;;;;;1.90;1.50;;;;;;;18.57;52.38;98252.02;105405;1259;74542;-39
2023/11/19 06:31:49;;;;;;;1.70;1.50;;;;;;;18.57;52.33;98251.63;105417;1257;66251;-39
2023/11/19 06:34:16;;;;;;;2.20;1.70;;;;;;;18.56;52.26;98250.52;105451;1257;72346;-41
2023/11/19 06:36:45;;;;;;;2.20;1.80;;;;;;;18.56;52.25;98249.91;105343;1259;61264;-41
2023/11/19 06:39:12;;;;;;;1.80;1.70;;;;;;;18.56;52.28;98249.74;105372;1258;61343;-40
2023/11/19 06:41:39;;;;;;;1.90;1.70;;;;;;;18.56;52.35;98252.23;105252;1260;75389;-42
2023/11/19 06:44:05;;;;;;;2.10;1.70;;;;;;;18.56;52.35;98254.48;105218;1259;64717;-42
2023/11/19 06:46:32;;;;;;;2.50;1.80;;;;;;;18.56;52.33;98255.09;105178;1254;72416;-42
2023/11/19 06:48:59;;;;;;;1.70;1.50;;;;;;;18.56;52.33;98251.60;105341;1260;61161;-42
2023/11/19 06:51:26;;;;;;;1.80;1.60;;;;;;;18.56;52.23;98248.96;105339;1257;61355;-40
2023/11/19 06:53:53;;;;;;;2.50;1.70;;;;;;;18.56;52.26;98249.59;105262;1255;74603;-42
2023/11/19 06:56:21;;;;;;;1.70;1.50;;;;;;;18.56;52.33;98248.80;105270;1259;66173;-42
2023/11/19 06:58:48;;;;;;;1.70;1.50;;;;;;;18.56;52.24;98251.52;105216;1257;72391;-42
2023/11/19 07:01:15;;;;;;;1.90;1.70;;;;;;;18.56;52.33;98248.73;105335;1260;61273;-41
2023/11/19 07:03:42;;;;;;;2.20;1.60;;;;;;;18.56;52.22;98246.33;105446;1259;61260;-40
2023/11/19 07:06:09;;;;;;;2.10;1.80;;;;;;;18.56;52.36;98245.85;105447;1260;74355;-40
2023/11/19 07:08:36;;;;;;;1.60;1.50;;;;;;;18.56;52.27;98249.11;105217;1263;66005;-40
2023/11/19 07:11:03;;;;;;;1.60;1.50;;;;;;;18.56;52.25;98247.10;105512;1257;72510;-40
2023/11/19 07:13:31;;;;;;;2.30;1.70;;;;;;;18.56;52.26;98245.33;105567;1259;61233;-40
2023/11/19 07:15:58;;;;;;;1.90;1.70;;;;;;;18.56;52.23;98247.41;105521;1258;61231;-42
2023/11/19 07:18:25;;;;;;;2.00;1.70;;;;;;;18.56;52.20;98256.09;105546;1259;74844;-42
2023/11/19 07:20:52;;;;;;;1.70;1.60;;;;;;;18.55;52.24;98253.76;105641;1259;66089;-40
2023/11/19 07:23:18;;;;;;;3.00;1.60;;;;;;;18.55;52.20;98250.50;105580;1254;72382;-40
2023/11/19 07:25:46;;;;;;;2.20;1.80;;;;;;;18.56;52.28;98246.63;105510;1260;63815;-41
2023/11/19 07:28:14;;;;;;;1.60;1.50;;;;;;;18.56;52.20;98234.71;105665;1257;61224;-40
2023/11/19 07:30:41;;;;;;;2.00;1.60;;;;;;;18.56;52.33;98229.20;105588;1257;75715;-40
2023/11/19 07:33:08;;;;;;;1.90;1.70;;;;;;;18.56;52.24;98224.55;105437;1259;65951;-40
2023/11/19 07:35:35;;;;;;;1.50;1.40;;;;;;;18.56;52.25;98222.22;105530;1257;72498;-40
2023/11/19 07:38:02;;;;;;;2.10;1.60;;;;;;;18.56;52.25;98216.95;105413;1256;63246;-40
2023/11/19 07:40:29;;;;;;;2.00;1.50;;;;;;;18.55;52.29;98211.29;105542;1257;61313;-40
2023/11/19 07:42:56;;;;;;;1.70;1.50;;;;;;;18.56;52.20;98209.98;105606;1254;74626;-40
2023/11/19 07:45:22;;;;;;;2.70;1.60;;;;;;;18.55;52.26;98204.62;105468;1259;66049;-40
2023/11/19 07:47:51;;;;;;;2.30;1.40;;;;;;;18.56;52.26;98206.95;105605;1257;72490;-40
2023/11/19 07:50:20;;;;;;;2.10;1.80;;;;;;;18.56;52.23;98206.65;105632;1259;61718;-41
2023/11/19 07:52:46;;;;;;;2.00;1.60;;;;;;;18.55;52.20;98206.02;105548;1256;61170;-40
2023/11/19 07:55:13;;;;;;;1.70;1.50;;;;;;;18.56;52.24;98203.86;105603;1256;74481;-40
2023/11/19 07:57:40;;;;;;;1.70;1.60;;;;;;;18.55;52.25;98204.46;105462;1259;65439;-42
2023/11/19 08:00:08;;;;;;;1.90;1.60;;;;;;;18.55;52.30;98201.68;105401;1257;72637;-41
2023/11/19 08:02:41;;;;;;;2.20;1.80;;;;;;;18.56;52.15;98200.52;105575;1259;61164;-40
2023/11/19 08:05:08;;;;;;;1.50;1.40;;;;;;;18.55;52.29;98196.95;105579;1256;61326;-41
2023/11/19 08:07:35;;;;;;;1.60;1.50;;;;;;;18.56;52.21;98192.71;105318;1260;74571;-41
2023/11/19 08:10:01;;;;;;;2.00;1.70;;;;;;;18.56;52.25;98191.14;105501;1259;66015;-42
2023/11/19 08:12:28;;;;;;;1.80;1.60;;;;;;;18.55;52.24;98193.54;105854;1257;72427;-41
2023/11/19 08:14:55;;;;;;;1.60;1.50;;;;;;;18.55;52.21;98197.17;105501;1257;61249;-42
2023/11/19 08:17:23;;;;;;;2.50;1.70;;;;;;;18.56;52.22;98196.73;105357;1257;61375;-42
2023/11/19 08:19:50;;;;;;;1.70;1.60;;;;;;;18.56;52.23;98193.31;105480;1259;74375;-40
2023/11/19 08:22:17;;;;;;;1.70;1.60;;;;;;;18.57;52.12;98191.48;106189;1256;66113;-41
2023/11/19 08:24:44;;;;;;;1.50;1.40;;;;;;;18.56;52.23;98191.61;105582;1257;72385;-41
2023/11/19 08:27:10;;;;;;;2.90;1.60;;;;;;;18.56;52.21;98194.02;105584;1259;61172;-40
2023/11/19 08:29:37;;;;;;;1.70;1.60;;;;;;;18.57;52.20;98202.17;105551;1257;63880;-40
2023/11/19 08:32:04;;;;;;;1.70;1.60;;;;;;;18.57;52.19;98199.39;105344;1259;74544;-41
2023/11/19 08:34:31;;;;;;;2.00;1.80;;;;;;;18.56;52.20;98193.48;105428;1257;66268;-41
2023/11/19 08:36:59;;;;;;;1.90;1.70;;;;;;;18.56;52.21;98186.59;105452;1257;72455;-41
2023/11/19 08:39:25;;;;;;;1.80;1.70;;;;;;;18.57;52.21;98177.46;105621;1259;61237;-41
2023/11/19 08:41:52;;;;;;;1.70;1.60;;;;;;;18.57;52.23;98173.67;105345;1257;61308;-40
2023/11/19 08:44:19;;;;;;;2.40;1.60;;;;;;;18.57;52.18;98169.71;105625;1259;74565;-40
2023/11/19 08:46:48;;;;;;;1.90;1.80;;;;;;;18.57;52.17;98170.58;105674;1259;66592;-40
2023/11/19 08:49:15;;;;;;;2.00;1.60;;;;;;;18.58;52.20;98167.03;105580;1257;71194;-40
2023/11/19 08:51:42;;;;;;;1.90;1.60;;;;;;;18.58;52.24;98164.09;105551;1257;61346;-40
2023/11/19 08:54:09;;;;;;;1.70;1.60;;;;;;;18.58;52.18;98160.68;105596;1257;63160;-40
2023/11/19 08:56:35;;;;;;;1.50;1.40;;;;;;;18.58;52.13;98163.26;105435;1255;74399;-42
2023/11/19 08:59:02;;;;;;;1.50;1.40;;;;;;;18.58;52.23;98156.91;105372;1259;65597;-40
2023/11/19 09:01:29;;;;;;;2.00;1.70;;;;;;;18.59;52.22;98155.05;105445;1256;72346;-42
2023/11/19 09:03:56;;;;;;;1.80;1.60;;;;;;;18.59;52.16;98147.32;105566;1259;61212;-39
2023/11/19 09:06:23;;;;;;;1.80;1.60;;;;;;;18.59;52.20;98148.55;105559;1257;61326;-39
2023/11/19 09:08:49;;;;;;;1.80;1.70;;;;;;;18.60;52.21;98144.48;105393;1259;73714;-40
2023/11/19 09:11:16;;;;;;;1.50;1.40;;;;;;;18.59;52.14;98135.54;105395;1259;65832;-40
2023/11/19 09:13:45;;;;;;;1.70;1.60;;;;;;;18.60;52.11;98130.23;105607;1257;72357;-40
2023/11/19 09:16:12;;;;;;;1.70;1.60;;;;;;;18.60;52.18;98120.38;105490;1259;61244;-40
2023/11/19 09:18:38;;;;;;;1.70;1.60;;;;;;;18.60;52.14;98119.05;105449;1255;61791;-41
2023/11/19 09:21:05;;;;;;;1.60;1.50;;;;;;;18.61;52.11;98119.84;105172;1254;73976;-40
2023/11/19 09:23:36;;;;;;;1.60;1.50;;;;;;;18.61;52.13;98113.42;105497;1259;66192;-41
2023/11/19 09:26:03;;;;;;;2.80;1.80;;;;;;;18.61;52.08;98111.48;105618;1257;73242;-40
2023/11/19 09:28:32;;;;;;;1.70;1.50;;;;;;;18.61;52.13;98115.85;105628;1259;61186;-40
2023/11/19 09:30:59;;;;;;;1.70;1.40;;;;;;;18.62;52.10;98109.05;105516;1256;190547;-41
2023/11/19 09:33:26;;;;;;;1.60;1.50;;;;;;;18.62;52.08;98105.09;105610;1259;74206;-40
2023/11/19 09:35:53;;;;;;;1.60;1.50;;;;;;;18.62;52.11;98100.36;105558;1256;65649;-40
2023/11/19 09:38:19;;;;;;;1.60;1.50;;;;;;;18.62;52.10;98093.95;105474;1257;72397;-41
2023/11/19 09:40:47;;;;;;;1.70;1.50;;;;;;;18.62;52.07;98087.29;105526;1256;61406;-41
2023/11/19 09:43:15;;;;;;;2.10;1.80;;;;;;;18.63;52.08;98086.13;105602;1257;61401;-40
2023/11/19 09:45:49;;;;;;;1.80;1.40;;;;;;;18.63;52.13;98082.34;105663;1257;74528;-40
2023/11/19 09:48:19;;;;;;;1.80;1.60;;;;;;;18.64;52.03;98077.33;105669;1259;64915;-39
2023/11/19 09:50:47;;;;;;;1.70;1.60;;;;;;;18.64;52.03;98075.54;105353;1257;72431;-41
2023/11/19 09:53:15;;;;;;;1.80;1.60;;;;;;;18.64;51.96;98074.71;105647;1259;61176;-41
2023/11/19 09:55:42;;;;;;;1.70;1.60;;;;;;;18.65;52.12;98072.80;105631;1257;61368;-40
2023/11/19 09:58:09;;;;;;;2.30;1.60;;;;;;;18.65;52.06;98073.42;105599;1254;74393;-40
2023/11/19 10:00:36;;;;;;;2.20;1.60;;;;;;;18.65;52.06;98073.26;105437;1260;65817;-40
2023/11/19 10:03:05;;;;;;;2.10;1.50;;;;;;;18.66;52.03;98076.53;105572;1257;73116;-40
2023/11/19 10:05:32;;;;;;;1.60;1.40;;;;;;;18.66;52.02;98071.58;105633;1260;61263;-40
2023/11/19 10:07:59;;;;;;;1.50;1.30;;;;;;;18.67;52.06;98065.55;105597;1256;61265;-39
2023/11/19 10:10:26;;;;;;;2.00;1.50;;;;;;;18.67;52.02;98062.01;105098;1262;75016;-41
2023/11/19 10:12:52;;;;;;;2.90;1.40;;;;;;;18.67;51.99;98059.76;105486;1260;66019;-41
2023/11/19 10:15:24;;;;;;;1.70;1.60;;;;;;;18.67;52.04;98058.83;105512;1257;72580;-40
2023/11/19 10:17:51;;;;;;;1.80;1.70;;;;;;;18.67;52.00;98055.58;105552;1257;61448;-40
2023/11/19 10:20:18;;;;;;;1.80;1.40;;;;;;;18.68;52.05;98066.15;105445;1259;61267;-41
2023/11/19 10:22:45;;;;;;;2.00;1.80;;;;;;;18.68;52.06;98062.59;105456;1258;74413;-41
2023/11/19 10:25:25;;;;;;;2.10;1.50;;;;;;;18.68;52.01;98058.40;105420;1257;66152;-40
2023/11/19 10:27:53;;;;;;;1.50;1.40;;;;;;;18.69;51.98;98053.39;105439;1257;72655;-40
2023/11/19 10:30:24;;;;;;;1.80;1.60;;;;;;;18.69;52.03;98052.05;105452;1257;62800;-41
2023/11/19 10:33:04;;;;;;;1.50;1.40;;;;;;;18.69;52.00;98053.45;105426;1256;63844;-40
2023/11/19 10:35:34;;;;;;;1.80;1.60;;;;;;;18.69;52.01;98056.33;105418;1257;74404;-41
2023/11/19 10:38:13;;;;;;;2.10;1.70;;;;;;;18.69;51.97;98056.55;105478;1256;65844;-42
2023/11/19 10:40:40;;;;;;;1.50;1.40;;;;;;;18.70;51.95;98057.59;105600;1255;72619;-40
2023/11/19 10:43:07;;;;;;;1.60;1.40;;;;;;;18.70;51.97;98055.73;105679;1259;61251;-40
2023/11/19 10:45:37;;;;;;;2.00;1.60;;;;;;;18.70;51.93;98057.61;105594;1256;61141;-40
2023/11/19 10:48:08;;;;;;;1.60;1.50;;;;;;;18.70;51.95;98058.21;105456;1257;74323;-41
2023/11/19 10:50:36;;;;;;;1.70;1.60;;;;;;;18.71;52.02;98057.54;105401;1256;64924;-40
2023/11/19 10:53:03;;;;;;;1.70;1.60;;;;;;;18.71;51.89;98060.57;105605;1257;72365;-39
2023/11/19 10:55:31;;;;;;;1.80;1.50;;;;;;;18.71;51.99;98053.84;105477;1259;61257;-41
2023/11/19 10:58:06;;;;;;;1.70;1.60;;;;;;;18.70;51.92;98050.86;105501;1256;61351;-40
2023/11/19 11:00:39;;;;;;;2.00;1.70;;;;;;;18.71;51.92;98049.39;105638;1259;74745;-40
2023/11/19 11:03:11;;;;;;;1.60;1.50;;;;;;;18.71;51.93;98046.46;105473;1259;65225;-40
2023/11/19 11:05:38;;;;;;;1.60;1.50;;;;;;;18.70;51.95;98044.19;105503;1256;70783;-40
2023/11/19 11:08:06;;;;;;;1.70;1.60;;;;;;;18.70;51.96;98046.36;105546;1259;61228;-40
2023/11/19 11:10:37;;;;;;;2.00;1.50;;;;;;;18.71;51.92;98047.07;105356;1256;61371;-41
2023/11/19 11:13:03;;;;;;;1.70;1.40;;;;;;;18.71;51.87;98042.34;105410;1257;74544;-40
2023/11/19 11:15:31;;;;;;;1.50;1.40;;;;;;;18.70;51.92;98038.14;105224;1261;66136;-40
2023/11/19 11:18:01;;;;;;;1.30;1.20;;;;;;;18.71;51.86;98040.81;105627;1257;72412;-40
2023/11/19 11:20:31;;;;;;;1.80;1.50;;;;;;;18.71;51.83;98033.59;105449;1259;61149;-40
2023/11/19 11:23:10;;;;;;;1.90;1.70;;;;;;;18.70;51.88;98029.40;105504;1259;61725;-40
2023/11/19 11:25:48;;;;;;;1.90;1.60;;;;;;;18.70;51.86;98022.72;105604;1259;74444;-40